Monday, October 16, 2017, 8:28 PM EDT
Back to Local

KFKL, Franklin, Venango Regional Airport

Location: Franklin, PA, United States Lat: 41.383
Local Time: 8:28 PM EDT ( 0:28 GMT) Lon: -79.867
Time Zone: US/Eastern Elev: 1538 ft

Show me the last for .
Show Decoded

2017-10-16 19:56 METAR KFKL 162356Z AUTO 29003KT 10SM CLR 06/01 A3027 RMK AO2 SLP259 6////
                 T00610011 10111 20061 51010 =
2017-10-16 18:56 METAR KFKL 162256Z AUTO 30003KT 10SM CLR 07/02 A3026 RMK AO2 SLP256 T00720017 =
2017-10-16 17:56 METAR KFKL 162156Z AUTO VRB04KT 10SM SCT045 BKN060 09/00 A3025 RMK AO2 SLP249
                 T00940000 =
2017-10-16 16:56 METAR KFKL 162056Z AUTO 32007KT 10SM FEW046 SCT055 09/M01 A3023 RMK AO2 SLP246
                 60000 T00941006 =
2017-10-16 15:56 METAR KFKL 161956Z AUTO VRB05KT 10SM FEW031 SCT039 10/03 A3022 RMK AO2 SLP242
                 T01000033 =
2017-10-16 14:56 METAR KFKL 161856Z AUTO 10SM FEW028 10/04 RMK AO2 RAE16 SLPNO P0000 T01000039 $
                 =
2017-10-16 13:56 METAR KFKL 161756Z AUTO 31007KT 7SM RA SCT024 OVC030 07/05 A3023 RMK AO2
                 RAB1659E18B34 SLP247 P0003 60003 T00670050 10106 20056 53004 =
2017-10-16 13:42 METAR KFKL 161742Z AUTO 30010G17KT 8SM RA BKN024 OVC049 08/04 A3023 RMK AO2
                 RAB1659E18B34 P0001 =
2017-10-16 12:56 METAR KFKL 161656Z AUTO 30009KT 10SM SCT028 BKN033 BKN044 11/04 A3022 RMK AO2
                 RAB26E48 SLP239 P0000 T01060044 =
2017-10-16 12:36 METAR KFKL 161636Z AUTO VRB05KT 10SM -RA BKN028 OVC038 09/03 A3022 RMK AO2 RAB26
                 P0000 =
2017-10-16 11:56 METAR KFKL 161556Z AUTO 29006KT 10SM FEW026 SCT032 OVC041 09/03 A3022 RMK AO2
                 RAB25E42 SLP240 P0000 T00940033 =
2017-10-16 11:18 METAR KFKL 161518Z AUTO VRB05KT 10SM BKN030 OVC038 09/03 A3022 RMK AO2 =
2017-10-16 10:56 METAR KFKL 161456Z AUTO VRB03KT 10SM BKN028 OVC034 09/03 A3022 RMK AO2 SLP238
                 T00890028 51018 =
2017-10-16 10:29 METAR KFKL 161429Z AUTO 34006KT 10SM BKN028 09/03 A3021 RMK AO2 =
2017-10-16 09:56 METAR KFKL 161356Z AUTO VRB06KT 10SM CLR 08/03 A3020 RMK AO2 SLP232 T00830028 =
2017-10-16 08:56 METAR KFKL 161256Z AUTO VRB03KT 10SM CLR 07/03 A3019 RMK AO2 SLP228 T00670028 =
2017-10-16 07:56 METAR KFKL 161156Z AUTO 32004KT 10SM CLR 06/03 A3016 RMK AO2 SLP219 60000 70013
                 T00560028 10083 20050 51016 =
2017-10-16 06:56 METAR KFKL 161056Z AUTO 00000KT 10SM CLR 06/03 A3015 RMK AO2 SLP213 T00560028
                 TSNO =
2017-10-16 06:04 METAR KFKL 161004Z AUTO VRB03KT 10SM FEW019 SCT024 BKN038 07/04 A3014 RMK AO2 =
2017-10-16 05:56 METAR KFKL 160956Z AUTO VRB03KT 10SM SCT019 BKN024 BKN036 07/04 A3013 RMK AO2
                 SLP207 T00720039 =
2017-10-16 04:56 METAR KFKL 160856Z AUTO VRB03KT 10SM BKN024 BKN031 OVC037 08/04 A3011 RMK AO2
                 SLP197 60000 T00780044 53013 =
2017-10-16 03:56 METAR KFKL 160756Z AUTO VRB03KT 10SM OVC035 08/05 A3010 RMK AO2 SLP190 T00780050
                 =
2017-10-16 03:16 METAR KFKL 160716Z AUTO VRB03KT 10SM SCT024 OVC033 08/05 A3009 RMK AO2 =
2017-10-16 02:56 METAR KFKL 160656Z AUTO VRB04KT 10SM BKN020 OVC025 08/05 A3008 RMK AO2 RAB15E27
                 SLP186 P0000 T00780050 =
2017-10-16 02:14 METAR KFKL 160614Z AUTO 32006KT 10SM FEW017 BKN026 OVC032 08/06 A3008 RMK AO2 =
2017-10-16 01:56 METAR KFKL 160556Z AUTO 32007KT 10SM FEW016 OVC032 08/07 A3007 RMK AO2 SLP182
                 60003 T00830067 10144 20083 51026 =
2017-10-16 01:43 METAR KFKL 160543Z AUTO 31005KT 10SM SCT014 OVC032 08/07 A3007 RMK AO2 =
2017-10-16 01:17 METAR KFKL 160517Z AUTO 31005KT 10SM BKN012 BKN021 OVC041 08/07 A3006 RMK AO2 =
2017-10-16 00:56 METAR KFKL 160456Z AUTO 32008KT 10SM BKN025 OVC041 09/07 A3005 RMK AO2 RAE39
                 SLP173 P0001 T00890072 402330089 =
2017-10-16 00:20 METAR KFKL 160420Z AUTO 32008KT 8SM -RA FEW007 SCT011 OVC020 09/08 A3003 RMK AO2
                 P0001 =
2017-10-16 00:12 METAR KFKL 160412Z AUTO 32009KT 7SM -RA SCT007 BKN011 OVC018 09/08 A3003 RMK AO2
                 P0001 =
2017-10-15 23:56 METAR KFKL 160356Z AUTO 32008KT 270V350 6SM -RA BR OVC007 10/08 A3002 RMK AO2
                 RAB16 CIG 004V010 SLP164 P0002 T01000083 =
2017-10-15 23:43 METAR KFKL 160343Z AUTO 31005KT 6SM -RA BR BKN007 OVC012 10/09 A3001 RMK AO2
                 RAB16 CIG 005V009 P0002 =
2017-10-15 23:34 METAR KFKL 160334Z AUTO VRB05G15KT 6SM -RA BR BKN010 OVC015 10/09 A3001 RMK AO2
                 RAB16 CIG 006V013 P0001 =
2017-10-15 22:56 METAR KFKL 160256Z AUTO 32008G15KT 10SM BKN017 BKN027 OVC055 12/09 A2999 RMK AO2
                 RAB16E38 SLP152 P0000 60000 T01170089 51027 =
2017-10-15 21:56 METAR KFKL 160156Z AUTO 29008KT 10SM BKN025 OVC031 13/09 A2996 RMK AO2 SLP141
                 T01330094 =
2017-10-15 21:06 METAR KFKL 160106Z AUTO 29009KT 10SM SCT025 BKN030 BKN043 14/09 A2995 RMK AO2 =
2017-10-15 20:56 METAR KFKL 160056Z AUTO 30012G19KT 270V340 10SM BKN025 BKN032 OVC043 14/09 A2994
                 RMK AO2 SLP136 T01390094 =
2017-10-15 20:34 METAR KFKL 160034Z AUTO 29010G18KT 10SM FEW020 SCT025 BKN030 14/11 A2993 RMK AO2
                 =

Support USWX by starting your Amazon purchase here.